Time;durP1;ratioP1;P1;durP2;ratioP2;P2;SDS_P1;SDS_P2;PMS_P1;PMS_P2;Temp;Humidity;BMP_temperature;BMP_pressure;BME280_temperature;BME280_humidity;BME280_pressure;Samples;Min_cycle;Max_cycle;Signal;HPM_P1;HPM_P2
2021/11/07 00:00:23;;;;;;;25.03;14.17;;;;;;;6.95;63.88;101139.67;1640300;86;21068;-67
2021/11/07 00:02:58;;;;;;;22.40;14.23;;;;;;;6.94;64.03;101146.44;1625363;87;21544;-67
2021/11/07 00:05:28;;;;;;;23.53;15.33;;;;;;;6.95;64.15;101146.77;1650086;85;21597;-68
2021/11/07 00:08:06;;;;;;;21.87;14.57;;;;;;;6.96;64.24;101140.00;1649030;85;21108;-68
2021/11/07 00:10:36;;;;;;;22.70;15.03;;;;;;;6.99;64.09;101141.05;1647704;85;21082;-68
2021/11/07 00:12:55;;;;;;;17.40;12.10;;;;;;;7.04;64.07;101139.27;1672416;83;21012;-68
2021/11/07 00:15:19;;;;;;;19.07;12.27;;;;;;;7.08;63.98;101132.70;1652380;85;21486;-68
2021/11/07 00:17:50;;;;;;;;;;;;;;;7.14;64.00;101132.60;1654351;85;21085;-68
2021/11/07 00:20:22;;;;;;;;;;;;;;;7.16;64.08;101130.67;1680340;84;20418;-67
2021/11/07 00:25:49;;;;;;;14.50;9.93;;;;;;;7.10;64.43;101129.44;1682759;84;21040;-67
2021/11/07 00:28:23;;;;;;;10.03;7.93;;;;;;;7.17;64.12;101133.65;1671228;84;21006;-69
2021/11/07 00:30:58;;;;;;;10.23;7.73;;;;;;;7.16;64.11;101131.49;1679042;84;21073;-68
2021/11/07 00:33:40;;;;;;;11.33;7.77;;;;;;;7.18;64.12;101121.58;1678644;80;20974;-67
2021/11/07 00:36:10;;;;;;;9.40;7.75;;;;;;;7.21;64.11;101113.34;1665481;84;21046;-67
2021/11/07 00:38:21;;;;;;;10.67;5.83;;;;;;;7.24;64.19;101112.20;1647658;85;21073;-67
2021/11/07 00:45:49;;;;;;;8.63;6.83;;;;;;;7.32;64.08;101107.48;1679739;83;21552;-67
2021/11/07 00:48:20;;;;;;;8.10;5.97;;;;;;;7.34;64.11;101096.23;1682944;84;21585;-66
2021/11/07 00:50:55;;;;;;;7.00;6.30;;;;;;;7.37;63.96;101100.75;1677524;84;21529;-68
2021/11/07 00:53:41;;;;;;;6.50;5.87;;;;;;;7.41;63.73;101097.30;1673503;84;21021;-66
2021/11/07 00:58:34;;;;;;;9.00;5.90;;;;;;;7.55;63.54;101101.26;1651941;85;21162;-67
2021/11/07 01:01:02;;;;;;;5.77;5.10;;;;;;;7.58;63.38;101096.98;1680366;83;21080;-68
2021/11/07 01:03:20;;;;;;;6.73;5.53;;;;;;;7.59;63.40;101089.36;1679098;84;21049;-67
2021/11/07 01:05:48;;;;;;;6.83;5.97;;;;;;;7.58;63.55;101094.34;1652226;85;21525;-68
2021/11/07 01:08:14;;;;;;;8.00;6.25;;;;;;;7.57;63.55;101088.67;1646603;85;21145;-68
2021/11/07 01:10:41;;;;;;;7.67;6.65;;;;;;;7.56;63.63;101097.13;1652084;85;21066;-66
2021/11/07 01:13:07;;;;;;;7.37;6.53;;;;;;;7.56;63.65;101089.67;1651238;85;21661;-67
2021/11/07 01:15:36;;;;;;;8.50;7.20;;;;;;;7.55;63.75;101082.69;1652347;85;21046;-67
2021/11/07 01:18:04;;;;;;;7.63;6.40;;;;;;;7.54;63.74;101085.84;1652528;85;21058;-67
2021/11/07 01:20:33;;;;;;;8.30;5.97;;;;;;;7.52;63.82;101083.83;1650254;85;21079;-67
2021/11/07 01:25:41;;;;;;;7.77;6.97;;;;;;;7.53;63.75;101078.03;1667634;84;21097;-67
2021/11/07 01:28:05;;;;;;;10.27;6.00;;;;;;;7.51;63.75;101076.84;1665922;84;21014;-68
2021/11/07 01:30:38;;;;;;;10.47;6.60;;;;;;;7.51;63.90;101075.52;1671086;84;21062;-69
2021/11/07 01:33:07;;;;;;;11.13;6.53;;;;;;;7.56;63.81;101075.91;1655700;84;22118;-67
2021/11/07 01:40:43;;;;;;;8.03;7.15;;;;;;;7.57;63.91;101055.04;1655816;85;21100;-69
2021/11/07 01:43:07;;;;;;;11.50;7.90;;;;;;;7.60;63.68;101056.55;1693048;83;20991;-67
2021/11/07 01:45:48;;;;;;;8.47;7.67;;;;;;;7.59;63.60;101059.70;1694549;83;21037;-68
2021/11/07 01:48:19;;;;;;;9.77;7.40;;;;;;;7.56;63.58;101057.34;1648147;85;20975;-67
2021/11/07 01:50:46;;;;;;;8.93;6.97;;;;;;;7.55;63.75;101050.38;1686396;83;21065;-67
2021/11/07 01:53:27;;;;;;;7.40;6.70;;;;;;;7.51;63.76;101045.01;1702519;83;21469;-66
2021/11/07 01:55:44;;;;;;;6.83;6.23;;;;;;;7.51;63.86;101047.66;1707211;82;21010;-66
2021/11/07 01:58:10;;;;;;;11.97;7.77;;;;;;;7.46;63.84;101045.98;1710409;82;21059;-67
2021/11/07 02:00:37;;;;;;;13.10;9.45;;;;;;;7.43;63.89;101053.40;1712993;81;21029;-69
2021/11/07 02:03:04;;;;;;;11.80;10.57;;;;;;;7.39;63.97;101055.52;1680055;84;21074;-68
2021/11/07 02:05:30;;;;;;;17.92;11.22;;;;;;;7.36;64.10;101048.67;1683686;84;21014;-67
2021/11/07 02:07:57;;;;;;;10.30;7.83;;;;;;;7.35;64.13;101062.94;1678174;84;21073;-67
2021/11/07 02:10:23;;;;;;;11.80;9.45;;;;;;;7.39;64.09;101054.19;1683274;84;20982;-67
2021/11/07 02:12:50;;;;;;;11.40;9.08;;;;;;;7.35;64.24;101057.63;1668835;84;20986;-68
2021/11/07 02:15:20;;;;;;;10.18;8.90;;;;;;;7.26;64.44;101057.19;1684368;84;20963;-66
2021/11/07 02:17:47;;;;;;;9.20;8.23;;;;;;;7.17;64.69;101052.28;1686992;84;21010;-66
2021/11/07 02:20:25;;;;;;;9.17;8.27;;;;;;;7.10;64.84;101054.35;1689257;84;21064;-64
2021/11/07 02:22:52;;;;;;;9.10;7.63;;;;;;;7.01;65.05;101048.97;1685537;83;20998;-67
2021/11/07 02:25:18;;;;;;;10.83;8.93;;;;;;;6.92;65.41;101047.69;1707458;82;21014;-66
2021/11/07 02:27:46;;;;;;;11.00;8.67;;;;;;;6.82;65.68;101043.27;1708494;82;21011;-66
2021/11/07 02:30:15;;;;;;;9.73;8.70;;;;;;;6.78;66.00;101052.97;1710026;82;21110;-66
2021/11/07 02:32:48;;;;;;;9.30;7.40;;;;;;;6.77;65.91;101058.77;1714729;82;21022;-67
2021/11/07 02:35:17;;;;;;;11.90;8.00;;;;;;;6.83;65.89;101054.20;1695385;82;21085;-66
2021/11/07 02:37:44;;;;;;;9.60;8.40;;;;;;;6.86;65.91;101055.73;1692193;83;21037;-66
2021/11/07 02:40:12;;;;;;;10.63;8.70;;;;;;;6.81;66.04;101053.52;1657288;85;21098;-67
2021/11/07 02:42:43;;;;;;;9.13;7.93;;;;;;;6.75;66.14;101048.80;1687901;83;21113;-67
2021/11/07 02:45:15;;;;;;;10.97;8.70;;;;;;;6.69;66.30;101041.45;1683686;83;21016;-77
2021/11/07 02:47:41;;;;;;;10.83;8.20;;;;;;;6.63;66.50;101045.52;1681887;84;21076;-67
2021/11/07 02:50:10;;;;;;;13.87;8.53;;;;;;;6.54;66.71;101038.43;1685273;84;21039;-67
2021/11/07 02:52:36;;;;;;;11.33;7.50;;;;;;;6.48;67.02;101035.52;1684751;84;21097;-67
2021/11/07 02:55:04;;;;;;;11.40;8.13;;;;;;;6.51;66.89;101033.91;1683695;83;21054;-69
2021/11/07 02:57:31;;;;;;;10.40;7.27;;;;;;;6.57;66.89;101030.67;1716338;82;21069;-67
2021/11/07 02:59:59;;;;;;;11.97;8.45;;;;;;;6.56;66.82;101025.88;1714987;82;21045;-67
2021/11/07 03:02:28;;;;;;;9.53;7.27;;;;;;;6.51;66.90;101022.81;1729450;82;20966;-67
2021/11/07 03:04:55;;;;;;;11.03;7.93;;;;;;;6.48;67.08;101026.24;1690247;84;21573;-67
2021/11/07 03:07:23;;;;;;;8.20;7.30;;;;;;;6.43;67.15;101026.19;1709991;82;21022;-76
2021/11/07 03:09:51;;;;;;;8.97;7.63;;;;;;;6.39;67.21;101021.34;1708957;82;21490;-67
2021/11/07 03:12:18;;;;;;;8.23;6.97;;;;;;;6.35;67.36;101024.77;1731308;82;21021;-67
2021/11/07 03:14:50;;;;;;;8.07;6.73;;;;;;;6.27;67.53;101031.75;1729874;82;21074;-67
2021/11/07 03:17:23;;;;;;;6.67;5.90;;;;;;;6.22;67.72;101032.19;1723473;82;21046;-66
2021/11/07 03:19:50;;;;;;;10.10;6.17;;;;;;;6.23;67.65;101031.20;1710231;82;20967;-65
2021/11/07 03:22:22;;;;;;;8.83;7.17;;;;;;;6.23;67.97;101031.20;1710107;82;21057;-66
2021/11/07 03:24:54;;;;;;;9.13;7.43;;;;;;;6.21;67.95;101035.80;1701041;82;21000;-65
2021/11/07 03:27:25;;;;;;;8.07;7.30;;;;;;;6.16;68.12;101032.73;1690719;82;21097;-66
2021/11/07 03:29:54;;;;;;;9.57;7.87;;;;;;;6.11;68.21;101038.47;1698535;82;21022;-67
2021/11/07 03:32:26;;;;;;;9.63;7.87;;;;;;;6.12;68.27;101040.16;1712399;82;21043;-66
2021/11/07 03:34:58;;;;;;;8.37;7.57;;;;;;;6.12;68.26;101044.13;1715379;82;21004;-66
2021/11/07 03:37:26;;;;;;;13.00;9.97;;;;;;;6.10;68.22;101039.93;1713455;82;21121;-65
2021/11/07 03:39:58;;;;;;;9.40;7.37;;;;;;;6.08;68.39;101036.09;1706872;82;21148;-67
2021/11/07 03:42:26;;;;;;;16.87;12.23;;;;;;;6.08;68.50;101032.63;1721699;82;21044;-67
2021/11/07 03:44:54;;;;;;;8.53;6.77;;;;;;;6.12;68.46;101037.51;1713886;82;20988;-66
2021/11/07 03:47:21;;;;;;;8.20;6.67;;;;;;;6.16;68.35;101032.27;1712117;82;21011;-72
2021/11/07 03:49:49;;;;;;;10.27;7.47;;;;;;;6.12;68.45;101024.27;1713249;82;21682;-66
2021/11/07 03:52:17;;;;;;;7.43;6.73;;;;;;;6.07;68.60;101032.30;1715250;82;21100;-65
2021/11/07 03:54:44;;;;;;;27.82;19.65;;;;;;;6.04;68.65;101025.45;1715261;82;21047;-66
2021/11/07 03:57:11;;;;;;;11.37;9.43;;;;;;;6.02;68.71;101024.27;1714353;82;21063;-67
2021/11/07 03:59:40;;;;;;;17.60;11.93;;;;;;;6.02;68.71;101029.56;1714937;83;21006;-65
2021/11/07 04:02:09;;;;;;;12.23;9.03;;;;;;;6.01;68.73;101027.91;1715223;83;21031;-66
2021/11/07 04:04:38;;;;;;;12.50;10.07;;;;;;;6.02;68.74;101028.73;1713828;83;21015;-66
2021/11/07 04:07:04;;;;;;;11.03;7.57;;;;;;;6.08;68.59;101027.33;1715798;83;21522;-64
2021/11/07 04:09:32;;;;;;;9.90;7.70;;;;;;;6.13;68.55;101028.57;1715891;83;21091;-65
2021/11/07 04:11:59;;;;;;;8.10;7.03;;;;;;;6.18;68.52;101021.05;1703237;81;20998;-72
2021/11/07 04:14:33;;;;;;;8.57;7.13;;;;;;;6.19;68.38;101024.52;1679148;85;21070;-66
2021/11/07 04:16:54;;;;;;;11.77;8.40;;;;;;;6.17;68.40;101024.66;1680597;84;21062;-67
2021/11/07 04:19:23;;;;;;;11.75;7.95;;;;;;;6.18;68.42;101022.87;1678770;85;21034;-69
2021/11/07 04:21:51;;;;;;;9.37;8.37;;;;;;;6.17;68.30;101018.04;1683222;85;21113;-68
2021/11/07 04:24:17;;;;;;;8.93;8.00;;;;;;;6.16;68.37;101023.47;1668406;83;21066;-66
2021/11/07 04:26:43;;;;;;;10.48;7.80;;;;;;;6.15;68.39;101020.00;1669616;85;21066;-67
2021/11/07 04:29:09;;;;;;;9.68;6.87;;;;;;;6.15;68.42;101017.34;1670358;85;21046;-67
2021/11/07 04:31:35;;;;;;;10.90;8.25;;;;;;;6.18;68.44;101018.40;1670025;85;21022;-67
2021/11/07 04:34:02;;;;;;;7.62;6.90;;;;;;;6.24;68.22;101013.02;1673793;83;21100;-67
2021/11/07 04:36:30;;;;;;;8.70;7.50;;;;;;;6.30;68.21;101011.11;1684433;84;21033;-67
2021/11/07 04:38:56;;;;;;;10.15;8.13;;;;;;;6.34;68.17;101015.14;1685274;84;21026;-66
2021/11/07 04:41:22;;;;;;;8.78;7.87;;;;;;;6.34;68.22;101010.34;1681996;84;21414;-69
2021/11/07 04:43:50;;;;;;;10.13;8.48;;;;;;;6.35;68.25;101018.64;1681276;84;21658;-68
2021/11/07 04:46:18;;;;;;;8.97;7.23;;;;;;;6.34;68.15;101016.95;1680481;84;21088;-66
2021/11/07 04:48:47;;;;;;;12.00;8.10;;;;;;;6.32;68.12;101014.45;1683825;84;21006;-68
2021/11/07 04:51:15;;;;;;;13.30;8.17;;;;;;;6.31;68.30;101021.20;1683148;84;21548;-68
2021/11/07 04:53:42;;;;;;;10.83;8.33;;;;;;;6.29;68.35;101025.34;1683320;84;21064;-67
2021/11/07 04:56:08;;;;;;;11.37;8.70;;;;;;;6.29;68.26;101029.32;1685315;82;21543;-68
2021/11/07 04:58:35;;;;;;;9.70;8.13;;;;;;;6.30;68.24;101020.38;1684386;84;21048;-66
2021/11/07 05:01:04;;;;;;;9.70;8.27;;;;;;;6.36;68.12;101025.09;1682620;85;21032;-67
2021/11/07 05:03:31;;;;;;;10.10;8.50;;;;;;;6.41;68.01;101025.50;1683642;84;21146;-68
2021/11/07 05:05:59;;;;;;;10.90;9.17;;;;;;;6.43;67.95;101026.69;1685194;84;21041;-66
2021/11/07 05:08:25;;;;;;;14.13;9.17;;;;;;;6.40;67.91;101031.80;1686012;84;21054;-66
2021/11/07 05:10:52;;;;;;;14.63;9.10;;;;;;;6.37;67.92;101033.40;1684248;85;21017;-66
2021/11/07 05:13:19;;;;;;;11.43;7.93;;;;;;;6.36;67.92;101027.74;1686843;84;21050;-66
2021/11/07 05:15:46;;;;;;;9.90;8.90;;;;;;;6.35;67.81;101032.71;1679462;84;21058;-66
2021/11/07 05:18:13;;;;;;;10.43;8.63;;;;;;;6.31;67.77;101043.25;1673195;84;21865;-64
2021/11/07 05:20:39;;;;;;;;;;;;;;;6.29;67.90;101036.41;1683703;84;21006;-66
2021/11/07 05:23:05;;;;;;;9.83;8.83;;;;;;;6.29;67.98;101041.23;1669348;83;20141;-72
2021/11/07 05:25:31;;;;;;;10.88;8.55;;;;;;;6.23;67.95;101043.11;1672539;84;21039;-65
2021/11/07 05:27:57;;;;;;;13.03;9.08;;;;;;;6.26;67.95;101040.19;1676454;84;21057;-66
2021/11/07 05:30:24;;;;;;;8.53;7.67;;;;;;;6.36;67.68;101037.01;1687388;84;21102;-66
2021/11/07 05:32:50;;;;;;;12.63;7.85;;;;;;;6.43;67.44;101046.05;1682511;84;21071;-66
2021/11/07 05:35:19;;;;;;;12.03;8.48;;;;;;;6.44;67.34;101050.85;1676708;83;20983;-67
2021/11/07 05:37:48;;;;;;;14.87;9.43;;;;;;;6.40;67.43;101052.12;1676280;84;21130;-66
2021/11/07 05:40:17;;;;;;;9.70;8.63;;;;;;;6.37;67.54;101053.26;1673742;85;21081;-67
2021/11/07 05:42:46;;;;;;;12.07;10.07;;;;;;;6.37;67.54;101055.91;1678048;84;21569;-69
2021/11/07 05:45:13;;;;;;;12.03;8.77;;;;;;;6.37;67.56;101047.96;1693353;82;21105;-68
2021/11/07 05:47:39;;;;;;;10.15;9.10;;;;;;;6.36;67.51;101044.95;1718818;82;21008;-69
2021/11/07 05:50:07;;;;;;;10.95;9.40;;;;;;;6.38;67.46;101048.29;1714829;82;21030;-66
2021/11/07 05:52:36;;;;;;;12.40;9.33;;;;;;;6.41;67.45;101048.52;1716260;82;21009;-69
2021/11/07 05:55:04;;;;;;;12.10;10.87;;;;;;;6.38;67.40;101032.40;1713329;83;20982;-69
2021/11/07 05:57:30;;;;;;;13.67;10.73;;;;;;;6.52;67.22;101040.89;1741523;80;21558;-68
2021/11/07 05:59:56;;;;;;;16.23;11.30;;;;;;;6.63;66.48;101048.16;1711146;84;21157;-66
2021/11/07 06:02:23;;;;;;;19.32;13.78;;;;;;;6.65;66.33;101037.42;1657876;84;21494;-70
2021/11/07 06:04:49;;;;;;;15.37;11.17;;;;;;;6.62;66.25;101030.58;1645576;86;21452;-66
2021/11/07 06:07:16;;;;;;;;;;;;;;;6.59;66.50;101034.87;1705296;82;21493;-67
2021/11/07 06:09:44;;;;;;;15.30;11.45;;;;;;;6.62;66.68;101031.91;1709919;82;20137;-69
2021/11/07 06:12:12;;;;;;;11.53;9.53;;;;;;;6.66;67.08;101031.62;1710770;82;20993;-67
2021/11/07 06:14:39;;;;;;;12.97;9.90;;;;;;;6.75;66.23;101036.88;1707994;82;21042;-67
2021/11/07 06:17:06;;;;;;;13.93;10.23;;;;;;;6.81;65.91;101038.11;1694910;82;21066;-70
2021/11/07 06:19:33;;;;;;;10.43;8.97;;;;;;;6.85;65.83;101031.53;1701301;82;21130;-67
2021/11/07 06:22:00;;;;;;;15.17;10.57;;;;;;;6.92;65.75;101035.27;1700350;82;21101;-69
2021/11/07 06:24:27;;;;;;;9.48;8.43;;;;;;;7.09;65.39;101030.16;1672614;83;21513;-67
2021/11/07 06:26:57;;;;;;;10.90;8.97;;;;;;;7.25;65.17;101030.82;1685096;83;21553;-69
2021/11/07 06:29:26;;;;;;;10.37;9.13;;;;;;;7.37;64.57;101030.46;1672500;83;21546;-70
2021/11/07 06:31:55;;;;;;;10.47;9.07;;;;;;;7.44;63.93;101037.34;1682777;83;21019;-67
2021/11/07 06:34:25;;;;;;;11.13;8.27;;;;;;;7.44;63.89;101031.17;1677559;84;21061;-67
2021/11/07 06:36:52;;;;;;;11.23;9.10;;;;;;;7.47;63.99;101035.69;1699240;82;21084;-67
2021/11/07 06:39:19;;;;;;;13.73;9.07;;;;;;;7.53;63.73;101035.08;1704431;82;21118;-68
2021/11/07 06:41:46;;;;;;;9.13;8.30;;;;;;;7.60;63.63;101030.02;1697237;82;21095;-68
2021/11/07 06:44:14;;;;;;;10.23;8.90;;;;;;;7.66;63.35;101032.55;1701275;82;21023;-67
2021/11/07 06:46:41;;;;;;;11.60;9.63;;;;;;;7.70;63.07;101032.08;1675420;84;21530;-67
2021/11/07 06:49:12;;;;;;;10.50;9.07;;;;;;;7.73;62.73;101030.97;1677486;84;21065;-69
2021/11/07 06:51:42;;;;;;;10.13;8.93;;;;;;;7.74;62.35;101029.96;1670169;84;21565;-67
2021/11/07 06:54:10;;;;;;;9.57;8.57;;;;;;;7.76;62.52;101032.83;1668775;84;21054;-72
2021/11/07 06:56:36;;;;;;;12.00;9.10;;;;;;;7.80;62.42;101032.85;1710640;82;20986;-69
2021/11/07 06:59:06;;;;;;;12.03;9.60;;;;;;;7.86;62.15;101035.39;1710792;82;21478;-68
2021/11/07 07:01:34;;;;;;;11.17;9.97;;;;;;;7.91;61.87;101031.78;1709330;82;21483;-68
2021/11/07 07:04:00;;;;;;;10.10;9.20;;;;;;;7.96;61.66;101032.13;1718722;83;21102;-64
2021/11/07 07:06:27;;;;;;;14.23;11.30;;;;;;;8.01;61.45;101028.21;1688248;83;21034;-65
2021/11/07 07:09:05;;;;;;;;;;;;;;;8.07;61.32;101028.91;1685492;83;21034;-65
2021/11/07 07:11:34;;;;;;;12.43;9.60;;;;;;;8.12;60.88;101019.99;1697486;83;20150;-66
2021/11/07 07:19:11;;;;;;;11.43;9.75;;;;;;;8.27;60.53;100996.33;1674824;83;21032;-67
2021/11/07 07:26:59;;;;;;;13.07;10.13;;;;;;;8.30;60.13;100994.69;1686181;84;21094;-66
2021/11/07 07:34:37;;;;;;;12.90;9.60;;;;;;;8.37;60.27;100979.80;1700363;82;21052;-69
2021/11/07 07:37:03;;;;;;;13.30;10.43;;;;;;;8.41;60.16;100973.67;1714664;82;21046;-67
2021/11/07 07:39:29;;;;;;;12.55;9.15;;;;;;;8.47;60.38;100963.77;1722921;82;21053;-68
2021/11/07 07:41:58;;;;;;;10.90;9.73;;;;;;;8.56;60.06;100969.45;1723298;82;21057;-68
2021/11/07 07:44:25;;;;;;;13.20;9.53;;;;;;;8.66;60.08;100966.66;1719562;82;21165;-67
2021/11/07 07:46:52;;;;;;;15.00;10.03;;;;;;;8.76;59.57;100966.88;1720912;82;21055;-67
2021/11/07 07:49:20;;;;;;;11.40;10.10;;;;;;;8.81;59.25;100965.05;1723229;82;21134;-71
2021/11/07 07:51:47;;;;;;;10.50;9.27;;;;;;;8.82;59.43;100958.75;1709717;82;21045;-67
2021/11/07 07:54:14;;;;;;;11.83;10.30;;;;;;;8.87;59.13;100970.22;1709987;82;21112;-68
2021/11/07 07:56:41;;;;;;;10.17;9.07;;;;;;;8.89;59.17;100965.09;1720448;82;21063;-69
2021/11/07 07:59:07;;;;;;;;;;;;;;;8.95;59.11;100963.11;1735301;82;21044;-68
2021/11/07 08:01:35;;;;;;;12.10;8.73;;;;;;;8.98;58.80;100964.60;1722128;82;20140;-70
2021/11/07 08:04:01;;;;;;;13.37;9.57;;;;;;;8.96;59.27;100973.24;1723676;82;21034;-68
2021/11/07 08:06:27;;;;;;;12.25;10.00;;;;;;;9.02;59.28;100975.24;1682832;84;21122;-68
2021/11/07 08:08:57;;;;;;;11.70;10.57;;;;;;;9.16;59.20;100973.29;1666965;84;21028;-68
2021/11/07 08:11:23;;;;;;;11.17;9.97;;;;;;;9.20;58.59;100965.82;1661381;85;21154;-69
2021/11/07 08:13:53;;;;;;;10.93;8.80;;;;;;;9.38;58.66;100971.02;1667594;85;21066;-71
2021/11/07 08:16:24;;;;;;;16.20;9.63;;;;;;;9.48;58.19;100958.36;1673978;84;21003;-67
2021/11/07 08:18:51;;;;;;;14.00;10.17;;;;;;;9.59;58.15;100946.56;1686141;84;21047;-69
2021/11/07 08:21:18;;;;;;;10.77;9.67;;;;;;;9.66;57.60;100945.37;1691240;84;21084;-68
2021/11/07 08:23:48;;;;;;;10.38;9.28;;;;;;;9.69;57.62;100943.22;1695324;84;21548;-70
2021/11/07 08:26:13;;;;;;;10.30;9.30;;;;;;;9.73;57.40;100938.39;1665538;85;21032;-69
2021/11/07 08:28:40;;;;;;;12.27;8.53;;;;;;;9.74;57.16;100940.89;1688017;84;21054;-72
2021/11/07 08:31:08;;;;;;;11.75;9.55;;;;;;;9.78;57.29;100933.41;1683930;84;21039;-71
2021/11/07 08:33:36;;;;;;;9.97;8.97;;;;;;;9.84;57.39;100929.23;1667053;84;21112;-71
2021/11/07 08:36:11;;;;;;;10.30;8.70;;;;;;;9.91;56.84;100932.37;1693697;84;21534;-68
2021/11/07 08:38:41;;;;;;;10.07;8.93;;;;;;;9.98;56.87;100925.03;1679056;84;21057;-69
2021/11/07 08:41:08;;;;;;;11.77;9.27;;;;;;;10.00;56.66;100929.21;1720877;82;21086;-67
2021/11/07 09:04:19;;;;;;;10.80;7.80;;;;;;;10.45;55.17;100888.27;1694940;83;21137;-73
2021/11/07 09:09:15;;;;;;;9.17;8.07;;;;;;;10.47;54.89;100896.91;1702873;83;21037;-69
2021/11/07 09:11:50;;;;;;;10.43;7.70;;;;;;;10.49;55.01;100889.58;1703182;81;21304;-71
2021/11/07 09:14:25;;;;;;;13.30;7.47;;;;;;;10.49;55.05;100875.77;1706721;83;21536;-68
2021/11/07 09:16:54;;;;;;;10.57;8.10;;;;;;;10.51;55.03;100863.09;1696176;83;21072;-79
2021/11/07 09:19:25;;;;;;;9.70;7.67;;;;;;;10.50;54.75;100861.93;1707220;83;21056;-80
2021/11/07 09:21:59;;;;;;;10.90;7.00;;;;;;;10.48;54.49;100864.77;1702543;83;21097;-73
2021/11/07 09:24:28;;;;;;;7.13;6.27;;;;;;;10.45;54.99;100865.14;1729543;81;21020;-70
2021/11/07 09:26:52;;;;;;;7.97;7.20;;;;;;;10.45;55.00;100854.95;1738798;81;21487;-71
2021/11/07 09:29:25;;;;;;;8.70;7.87;;;;;;;10.45;54.94;100858.47;1731055;81;22227;-71
2021/11/07 09:32:38;;;;;;;11.50;8.00;;;;;;;10.46;54.97;100861.95;1730816;81;21095;-73
2021/11/07 09:34:22;;;;;;;10.37;7.67;;;;;;;10.50;55.03;100863.27;1690837;79;21029;-68
2021/11/07 09:36:55;;;;;;;27.27;8.27;;;;;;;10.56;54.74;100856.41;1697998;83;21540;-68
2021/11/07 09:39:23;;;;;;;9.17;7.33;;;;;;;10.58;54.60;100855.21;1700374;83;21064;-71
2021/11/07 09:42:02;;;;;;;11.90;7.67;;;;;;;10.60;54.59;100849.71;1702288;83;21080;-69
2021/11/07 09:44:23;;;;;;;7.87;7.07;;;;;;;10.62;54.37;100841.85;1691140;83;21021;-68
2021/11/07 09:46:52;;;;;;;6.70;6.07;;;;;;;10.61;53.90;100840.20;1663570;86;21054;-67
2021/11/07 09:49:32;;;;;;;9.10;6.97;;;;;;;10.60;54.17;100835.88;1669893;86;21570;-67
2021/11/07 09:52:09;;;;;;;8.63;6.93;;;;;;;10.58;54.14;100829.89;1660014;86;21078;-68
2021/11/07 09:54:33;;;;;;;10.30;7.42;;;;;;;10.59;54.34;100819.56;1662500;86;21100;-69
2021/11/07 09:57:01;;;;;;;8.67;7.77;;;;;;;10.63;53.96;100815.53;1666848;85;20994;-68
2021/11/07 09:59:29;;;;;;;8.80;7.90;;;;;;;10.67;54.05;100808.84;1668289;85;21101;-70
2021/11/07 10:02:00;;;;;;;9.83;8.83;;;;;;;10.74;54.22;100796.97;1658650;84;21009;-68
2021/11/07 10:04:33;;;;;;;10.63;8.60;;;;;;;10.83;53.78;100785.23;1650556;85;21049;-69
2021/11/07 10:07:26;;;;;;;8.63;7.70;;;;;;;10.94;53.66;100779.95;1652115;85;21056;-71
2021/11/07 10:09:59;;;;;;;9.87;6.73;;;;;;;11.07;53.56;100775.34;1643552;85;21037;-70
2021/11/07 10:12:42;;;;;;;7.33;6.67;;;;;;;11.15;52.79;100771.77;1647460;85;21558;-70
2021/11/07 10:15:11;;;;;;;8.43;7.63;;;;;;;11.18;53.07;100759.42;1640031;85;21081;-72
2021/11/07 10:17:50;;;;;;;8.43;7.65;;;;;;;11.27;52.54;100756.99;1656243;85;21375;-67
2021/11/07 10:20:33;;;;;;;9.77;8.20;;;;;;;11.32;52.37;100767.95;1655120;85;21051;-68
2021/11/07 10:23:13;;;;;;;8.80;7.90;;;;;;;11.29;52.38;100762.46;1668227;83;21019;-70
2021/11/07 10:25:58;;;;;;;9.00;6.93;;;;;;;11.25;52.46;100760.35;1702520;83;21511;-67
2021/11/07 10:28:29;;;;;;;9.57;7.73;;;;;;;11.16;52.43;100758.26;1691342;83;21078;-67
2021/11/07 10:31:37;;;;;;;7.87;7.07;;;;;;;11.12;52.78;100766.83;1696140;83;21137;-71
2021/11/07 10:40:10;;;;;;;10.87;8.50;;;;;;;11.04;52.94;100756.55;1684328;85;21067;-72
2021/11/07 10:45:29;;;;;;;9.43;6.53;;;;;;;10.95;52.42;100738.95;1668481;84;20982;-68
2021/11/07 10:48:22;;;;;;;9.55;7.00;;;;;;;10.92;52.65;100747.30;1657781;85;20968;-75
2021/11/07 10:53:32;;;;;;;7.73;6.47;;;;;;;10.85;52.32;100755.70;1666879;85;21003;-68
2021/11/07 10:56:02;;;;;;;6.92;6.33;;;;;;;10.85;52.22;100746.36;1660669;85;21008;-67
2021/11/07 10:58:35;;;;;;;6.13;5.53;;;;;;;10.83;51.83;100739.91;1678707;83;21019;-74
2021/11/07 11:01:07;;;;;;;8.33;6.73;;;;;;;10.82;51.88;100731.56;1688573;84;20969;-68
2021/11/07 11:03:44;;;;;;;7.83;6.53;;;;;;;10.83;51.88;100722.56;1687769;83;20965;-69
2021/11/07 11:06:14;;;;;;;7.03;6.33;;;;;;;10.85;51.74;100713.88;1685549;83;21047;-67
2021/11/07 11:08:53;;;;;;;7.50;6.20;;;;;;;10.87;51.81;100706.53;1687559;83;21028;-69
2021/11/07 11:11:44;;;;;;;10.40;6.60;;;;;;;10.89;51.87;100704.50;1682186;83;21782;-67
2021/11/07 11:25:37;;;;;;;9.43;7.93;;;;;;;11.15;51.83;100708.59;1677386;84;21020;-68
2021/11/07 11:27:46;;;;;;;8.20;6.47;;;;;;;11.18;51.66;100700.20;1661327;83;21079;-68
2021/11/07 11:32:47;;;;;;;5.65;5.17;;;;;;;11.20;50.98;100714.19;1684274;83;21000;-67
2021/11/07 11:35:27;;;;;;;7.47;5.70;;;;;;;11.22;50.73;100700.67;1677844;84;21051;-70
2021/11/07 11:40:24;;;;;;;6.57;5.97;;;;;;;11.21;50.72;100663.01;1614949;87;21003;-69
2021/11/07 11:43:03;;;;;;;6.87;6.10;;;;;;;11.20;50.68;100653.34;1639612;86;21049;-70
2021/11/07 11:45:28;;;;;;;6.20;5.67;;;;;;;11.18;50.59;100660.70;1673760;82;21036;-68
2021/11/07 12:00:09;;;;;;;7.73;6.93;;;;;;;11.05;51.42;100631.99;1695311;82;21518;-68
2021/11/07 12:02:43;;;;;;;7.20;6.50;;;;;;;11.05;51.50;100624.81;1677212;84;21040;-68
2021/11/07 12:05:21;;;;;;;8.83;7.93;;;;;;;11.08;51.59;100634.30;1708767;82;21057;-70
2021/11/07 12:08:22;;;;;;;8.23;7.40;;;;;;;11.07;51.86;100633.97;1704249;82;21086;-68
2021/11/07 12:13:56;;;;;;;8.23;7.27;;;;;;;10.93;51.97;100643.63;1697615;82;21016;-70
2021/11/07 12:16:45;;;;;;;10.67;7.97;;;;;;;10.90;52.18;100636.80;1706363;82;21085;-68
2021/11/07 12:19:15;;;;;;;8.30;7.47;;;;;;;10.89;52.45;100627.68;1663182;82;21045;-70
2021/11/07 12:21:55;;;;;;;8.90;8.00;;;;;;;10.87;52.51;100612.38;1704189;82;21860;-70
2021/11/07 12:24:36;;;;;;;8.10;7.30;;;;;;;10.86;52.70;100618.19;1709029;83;21046;-66
2021/11/07 12:27:30;;;;;;;11.17;8.10;;;;;;;10.88;52.93;100618.01;1719229;82;21159;-67
2021/11/07 12:30:15;;;;;;;11.20;8.13;;;;;;;10.65;52.74;100567.44;1701071;82;21116;-67
2021/11/07 12:32:48;;;;;;;9.27;8.37;;;;;;;10.83;53.32;100603.05;1705749;82;21465;-67
2021/11/07 12:35:38;;;;;;;10.27;9.20;;;;;;;10.82;53.58;100594.23;1709042;82;21524;-67
2021/11/07 12:40:58;;;;;;;9.97;8.97;;;;;;;10.81;54.07;100596.59;1698806;82;20962;-67
2021/11/07 12:43:34;;;;;;;11.90;10.28;;;;;;;10.76;54.64;100578.16;1696431;83;20942;-70
2021/11/07 12:46:46;;;;;;;9.47;8.50;;;;;;;10.70;55.08;100577.05;1686340;82;21018;-69
2021/11/07 12:49:20;;;;;;;12.13;9.53;;;;;;;10.62;55.40;100576.61;1669525;84;21133;-71
2021/11/07 12:52:07;;;;;;;10.58;9.48;;;;;;;10.53;55.44;100575.06;1677923;84;21573;-68
2021/11/07 12:54:38;;;;;;;10.37;8.73;;;;;;;10.51;55.90;100571.76;1689306;85;21030;-71
2021/11/07 12:57:14;;;;;;;12.57;10.20;;;;;;;10.51;56.15;100565.91;1649308;84;20989;-67
2021/11/07 12:59:49;;;;;;;9.33;8.33;;;;;;;10.54;56.52;100567.38;1638779;87;21126;-68
2021/11/07 13:02:32;;;;;;;13.80;10.27;;;;;;;10.54;56.41;100565.22;1642793;85;21095;-67
2021/11/07 13:05:15;;;;;;;10.17;9.07;;;;;;;10.54;56.45;100567.38;1631656;85;21543;-67
2021/11/07 13:10:24;;;;;;;9.53;8.50;;;;;;;10.57;56.44;100574.17;1624773;87;21052;-75
2021/11/07 13:13:07;;;;;;;9.63;8.63;;;;;;;10.55;56.32;100552.20;1622599;86;21029;-71
2021/11/07 13:15:46;;;;;;;9.27;8.37;;;;;;;10.53;56.22;100561.73;1624602;87;21050;-68
2021/11/07 13:21:01;;;;;;;11.13;9.10;;;;;;;10.41;56.07;100553.34;1631510;87;21115;-69
2021/11/07 13:23:48;;;;;;;12.70;9.23;;;;;;;10.39;56.41;100557.20;1667182;84;21001;-67
2021/11/07 13:26:22;;;;;;;10.30;8.90;;;;;;;10.32;56.16;100548.62;1690413;84;21081;-69
2021/11/07 13:28:57;;;;;;;9.97;8.83;;;;;;;10.28;56.27;100557.10;1684853;84;21072;-69